^^
Station Historical Data
 
Daily Summary for September 29, 2022 Units:  English    Metric   Both
Daily Weekly Monthly Yearly Custom
  Current: High: Low: Average:
Temperature: 51.3 °F 56.2 °F 51.3 °F 53.8 °F
Dew Point: 42.4 °F 46.6 °F 40.3 °F 43.3 °F
Humidity: 71.7% 74% 61.3% 68%
Wind Speed: 0mph 2.4mph 0mph 1.1mph
Wind Gust: 1mph 4mph - -
WindCalm - - WSW
Pressure: 30.16 in 30.18 in 30.16 in -
Precipitation: 0.00 in      
Historical Graphs
 
 
Tabular Data for September 29, 2022
Time Temperature Dew Point Pressure Wind Wind Speed Wind Gust Humidity Rainfall Rate (Hourly) solar
00:04 56.2 °F 45.5 °F 30.18 in SSW 1 mph 1 mph 67.4% 0.00 in 0 W/m2
00:09 55.9 °F 45.7 °F 30.18 in SSW 1.2 mph 1 mph 68.6% 0.00 in 0 W/m2
00:14 55.7 °F 45.9 °F 30.18 in South 0.2 mph 1 mph 69.9% 0.00 in 0 W/m2
00:19 55.3 °F 46.2 °F 30.18 in Calm     71.4% 0.00 in 0 W/m2
00:24 55 °F 46.5 °F 30.18 in Calm     73% 0.00 in 0 W/m2
00:29 54.8 °F 46.6 °F 30.17 in Calm     74% 0.00 in 0 W/m2
00:34 54.4 °F 46.3 °F 30.17 in Calm     74% 0.00 in 0 W/m2
00:39 54.3 °F 45.7 °F 30.17 in SSW 1.6 mph 1.3 mph 72.7% 0.00 in 0 W/m2
00:44 54.5 °F 45.6 °F 30.17 in SSW 2.3 mph 2 mph 71.7% 0.00 in 0 W/m2
00:49 54.8 °F 45.3 °F 30.17 in WSW 1.2 mph 2 mph 70.1% 0.00 in 0 W/m2
00:54 54.9 °F 46 °F 30.17 in WSW 1.2 mph 2 mph 71.9% 0.00 in 0 W/m2
00:59 54.9 °F 45.6 °F 30.17 in WNW 1.8 mph 2 mph 70.8% 0.00 in 0 W/m2
01:04 55.1 °F 45.2 °F 30.17 in WSW 2 mph 2 mph 69.3% 0.00 in 0 W/m2
01:09 55.4 °F 44.9 °F 30.17 in West 2.1 mph 2 mph 67.7% 0.00 in 0 W/m2
01:14 55.7 °F 44.5 °F 30.17 in West 2 mph 2 mph 66.2% 0.00 in 0 W/m2
01:19 55.6 °F 44.1 °F 30.17 in WSW 1.2 mph 2 mph 65.3% 0.00 in 0 W/m2
01:24 55.4 °F 43.9 °F 30.17 in SSW 0.8 mph 1 mph 65.2% 0.00 in 0 W/m2
01:29 55.1 °F 44 °F 30.18 in SSW 0.9 mph 1 mph 65.9% 0.00 in 0 W/m2
01:34 55 °F 43.5 °F 30.18 in SW 1.2 mph 1.1 mph 65.1% 0.00 in 0 W/m2
01:39 55 °F 43.6 °F 30.17 in SW 1.3 mph 2 mph 65.3% 0.00 in 0 W/m2
01:44 54.9 °F 44.1 °F 30.17 in West 1.2 mph 2 mph 67% 0.00 in 0 W/m2
01:49 54.6 °F 43.9 °F 30.17 in WNW 0.7 mph 1 mph 67% 0.00 in 0 W/m2
01:54 54.2 °F 43.4 °F 30.17 in Calm   1 mph 66.7% 0.00 in 0 W/m2
01:59 53.8 °F 43.5 °F 30.18 in Calm     68% 0.00 in 0 W/m2
02:04 53.3 °F 43.1 °F 30.18 in Calm     68.4% 0.00 in 0 W/m2
02:09 53 °F 43.1 °F 30.17 in SW 0.4 mph 0.2 mph 69.1% 0.00 in 0 W/m2
02:14 52.8 °F 43.6 °F 30.18 in SW 0.5 mph 1 mph 71% 0.00 in 0 W/m2
02:19 52.7 °F 43.8 °F 30.18 in SSW 1.6 mph 1.3 mph 71.6% 0.00 in 0 W/m2
02:24 52.8 °F 43.3 °F 30.18 in SW 1.4 mph 2 mph 70% 0.00 in 0 W/m2
02:29 53.1 °F 43.2 °F 30.18 in NW 0.9 mph 1 mph 69% 0.00 in 0 W/m2
02:34 53.2 °F 43.2 °F 30.18 in SW 1.1 mph 1 mph 68.8% 0.00 in 0 W/m2
02:39 53.1 °F 43.4 °F 30.17 in SSW 1.6 mph 1 mph 69.5% 0.00 in 0 W/m2
02:44 52.9 °F 43.4 °F 30.17 in Calm   2 mph 70.2% 0.00 in 0 W/m2
02:49 52.7 °F 42 °F 30.17 in WNW 2.3 mph 1.1 mph 66.8% 0.00 in 0 W/m2
02:54 53 °F 40.3 °F 30.17 in WNW 2.4 mph 4 mph 62% 0.00 in 0 W/m2
02:59 53.3 °F 40.4 °F 30.17 in North 1.3 mph 3 mph 61.4% 0.00 in 0 W/m2
03:04 53.5 °F 40.6 °F 30.17 in SW 1.1 mph 2 mph 61.6% 0.00 in 0 W/m2
03:09 53.5 °F 40.6 °F 30.17 in WSW 1 mph 1 mph 61.5% 0.00 in 0 W/m2
03:14 53.4 °F 40.4 °F 30.17 in WNW 0.7 mph 1 mph 61.3% 0.00 in 0 W/m2
03:19 53.4 °F 40.7 °F 30.17 in WSW 1.2 mph 1 mph 62.1% 0.00 in 0 W/m2
03:24 53.2 °F 40.9 °F 30.17 in SW 1.3 mph 1.3 mph 62.8% 0.00 in 0 W/m2
03:29 53.2 °F 41.1 °F 30.16 in WSW 0.3 mph 2 mph 63.4% 0.00 in 0 W/m2
03:34 53.2 °F 41.3 °F 30.16 in SW 1.7 mph 1.6 mph 63.8% 0.00 in 0 W/m2
03:39 53 °F 41.2 °F 30.16 in SSW 2.1 mph 2 mph 64.2% 0.00 in 0 W/m2
03:44 52.6 °F 41.3 °F 30.16 in SSW 1.5 mph 2 mph 65.3% 0.00 in 0 W/m2
03:49 52.3 °F 41.8 °F 30.16 in SW 0.9 mph 2 mph 67.5% 0.00 in 0 W/m2
03:54 52.1 °F 41.6 °F 30.16 in NW 0.7 mph 1 mph 67.5% 0.00 in 0 W/m2
03:59 51.8 °F 41.2 °F 30.16 in SW 1.9 mph 1.8 mph 67% 0.00 in 0 W/m2
04:04 52 °F 42.4 °F 30.16 in West 1.8 mph 2 mph 69.7% 0.00 in 0 W/m2
04:09 51.8 °F 42 °F 30.16 in WSW 1.2 mph 2 mph 69.3% 0.00 in 0 W/m2
04:14 51.7 °F 42 °F 30.16 in SW 1.1 mph 1 mph 69.4% 0.00 in 0 W/m2
04:19 51.4 °F 42.2 °F 30.16 in SW 0.7 mph 2 mph 70.5% 0.00 in 0 W/m2
04:24 51.3 °F 42.4 °F 30.16 in Calm   1 mph 71.7% 0.00 in 0 W/m2
The Lakes at Centerra, Loveland, Colorado, USA
Compliments of Weather Underground - 2 mb